This is the latest recevied weather packets stored in our database for station/object KY0TEQ-13. If no packets are shown the sender has not sent any weather packets the latest 10 day(s).
| Time | Temp. | Humidity | Pressure | Rain* | Wind** | Luminosity | Snow |
|---|---|---|---|---|---|---|---|
| 1777550453 | 3.33° C | 52% | 1301.2 hPa | 0 mm | - | 0 W/m² | - |
| 1777548935 | 1.67° C | 59% | 1300.9 hPa | 0 mm | - | 0 W/m² | - |
| 1777548328 | 2.78° C | 53% | 1301.1 hPa | 0 mm | - | 0 W/m² | - |
| 1777547721 | 3.89° C | 49% | 1301 hPa | 0 mm | - | 0 W/m² | - |
| 1777547418 | 2.78° C | 54% | 1300.9 hPa | 0 mm | - | 0 W/m² | - |
| 1777545296 | 2.78° C | 53% | 1301.1 hPa | 0 mm | - | 0 W/m² | - |
| 1777544993 | 2.78° C | 53% | 1301.3 hPa | 0 mm | - | 0 W/m² | - |
| 1777544689 | 3.33° C | 52% | 1301.3 hPa | 0 mm | - | 0 W/m² | - |
| 1777544385 | 3.33° C | 52% | 1301.1 hPa | 0 mm | - | 0 W/m² | - |
| 1777544082 | 3.33° C | 52% | 1301.3 hPa | 0 mm | - | 0 W/m² | - |
| 1777543780 | 2.78° C | 51% | 1301.3 hPa | 0 mm | - | 0 W/m² | - |
| 1777543475 | 2.78° C | 52% | 1301.2 hPa | 0 mm | - | 0 W/m² | - |
| 1777543172 | 2.78° C | 53% | 1301.5 hPa | 0 mm | - | 0 W/m² | - |
| 1777542867 | 3.33° C | 51% | 1301.2 hPa | 0 mm | - | 0 W/m² | - |
| 1777542565 | 3.33° C | 49% | 1301.2 hPa | 0 mm | - | 0 W/m² | - |
| 1777542261 | 2.22° C | 54% | 1301.5 hPa | 0 mm | - | 0 W/m² | - |
| 1777541958 | 2.22° C | 53% | 1301.2 hPa | 0 mm | - | 0 W/m² | - |
| 1777541655 | 4.44° C | 47% | 1301 hPa | 0 mm | - | 0 W/m² | - |
| 1777541352 | 5° C | 45% | 1301 hPa | 0 mm | - | 0 W/m² | - |
| 1777541048 | 4.44° C | 46% | 1301.1 hPa | 0 mm | - | 0 W/m² | - |
| 1777540745 | 5° C | 46% | 1301 hPa | 0 mm | - | 0 W/m² | - |
| 1777540443 | 5° C | 43% | 1300.9 hPa | 0 mm | - | 0 W/m² | - |
| 1777540139 | 5° C | 45% | 1301 hPa | 0 mm | - | 0 W/m² | - |
| 1777539834 | 4.44° C | 45% | 1300.7 hPa | 0 mm | - | 0 W/m² | - |
| 1777539530 | 4.44° C | 46% | 1300.5 hPa | 0 mm | - | 0 W/m² | - |
* Rain latest hour (hover to see other rain measurements)
** Current wind speed in m/s (hover to see current wind gust speed)